Time;durP1;ratioP1;P1;durP2;ratioP2;P2;SDS_P1;SDS_P2;PMS_P1;PMS_P2;Temp;Humidity;BMP_temperature;BMP_pressure;BME280_temperature;BME280_humidity;BME280_pressure;Samples;Min_cycle;Max_cycle;Signal;HPM_P1;HPM_P2
2022/09/11 00:01:08;;;;;;;10.77;2.40;;;12.40;88.60;;;;;;5004115;28;20025;-70
2022/09/11 00:03:35;;;;;;;6.15;2.05;;;12.40;88.20;;;;;;5004040;28;20099;-70
2022/09/11 00:06:05;;;;;;;3.83;1.70;;;12.40;88.00;;;;;;5003701;28;20092;-70
2022/09/11 00:08:32;;;;;;;5.85;2.38;;;12.40;89.10;;;;;;5002240;28;20356;-70
2022/09/11 00:11:09;;;;;;;5.97;2.15;;;12.30;89.60;;;;;;5015663;28;20038;-69
2022/09/11 00:13:37;;;;;;;6.32;2.10;;;12.30;88.60;;;;;;5007950;28;20033;-68
2022/09/11 00:16:04;;;;;;;6.88;2.00;;;12.30;88.50;;;;;;5014725;28;20041;-67
2022/09/11 00:18:34;;;;;;;5.05;1.63;;;12.40;89.90;;;;;;4994139;28;20025;-69
2022/09/11 00:21:01;;;;;;;4.78;1.80;;;12.40;91.00;;;;;;5010181;28;20034;-70
2022/09/11 00:23:28;;;;;;;4.88;1.90;;;12.50;91.60;;;;;;5006137;28;20030;-68
2022/09/11 00:25:53;;;;;;;4.72;1.70;;;12.50;91.60;;;;;;5023287;28;20040;-68
2022/09/11 00:28:22;;;;;;;7.38;2.10;;;12.50;92.60;;;;;;5006679;28;20026;-67
2022/09/11 00:31:04;;;;;;;4.90;1.95;;;12.60;93.20;;;;;;5004388;28;20065;-69
2022/09/11 00:33:30;;;;;;;5.05;1.90;;;12.60;92.60;;;;;;5005363;28;20096;-69
2022/09/11 00:35:59;;;;;;;6.25;1.83;;;12.50;92.20;;;;;;5004797;28;20026;-69
2022/09/11 00:38:28;;;;;;;7.03;2.08;;;12.50;92.10;;;;;;5003423;28;20030;-69
2022/09/11 00:40:57;;;;;;;5.13;1.73;;;12.50;91.80;;;;;;5011209;28;20116;-67
2022/09/11 00:43:23;;;;;;;8.15;2.10;;;12.60;94.00;;;;;;5015115;28;20026;-69
2022/09/11 00:45:56;;;;;;;5.05;1.73;;;12.70;93.80;;;;;;5006263;28;20037;-69
2022/09/11 00:48:25;;;;;;;7.03;1.85;;;12.70;93.80;;;;;;5008309;28;20108;-68
2022/09/11 00:50:53;;;;;;;6.15;1.73;;;12.70;94.00;;;;;;5004843;28;20445;-67
2022/09/11 00:53:22;;;;;;;6.30;1.90;;;12.80;94.90;;;;;;5011031;28;20029;-68
2022/09/11 00:55:52;;;;;;;5.72;1.80;;;12.80;93.70;;;;;;5010601;28;20024;-68
2022/09/11 00:58:25;;;;;;;7.45;2.05;;;12.80;94.60;;;;;;5005862;28;20087;-68
2022/09/11 01:00:52;;;;;;;8.57;1.83;;;12.80;93.90;;;;;;5013599;28;20482;-68
2022/09/11 01:03:19;;;;;;;6.28;1.80;;;12.80;93.90;;;;;;4994805;28;20037;-68
2022/09/11 01:05:45;;;;;;;6.43;2.00;;;12.80;94.00;;;;;;5003048;28;20458;-68
2022/09/11 01:08:13;;;;;;;5.72;1.90;;;12.80;94.50;;;;;;5009293;28;20037;-69
2022/09/11 01:10:45;;;;;;;11.18;2.60;;;12.80;94.50;;;;;;5010260;28;20064;-68
2022/09/11 01:13:20;;;;;;;6.53;1.80;;;12.70;93.50;;;;;;5006905;28;20030;-68
2022/09/11 01:16:02;;;;;;;6.25;2.00;;;12.80;94.10;;;;;;5014598;28;20029;-68
2022/09/11 01:18:35;;;;;;;4.03;1.95;;;12.80;95.00;;;;;;5004578;28;20450;-68
2022/09/11 01:21:38;;;;;;;5.03;1.73;;;12.80;95.20;;;;;;5009059;28;20057;-68
2022/09/11 01:24:16;;;;;;;6.57;2.08;;;12.90;95.40;;;;;;5004130;28;20289;-68
2022/09/11 01:27:03;;;;;;;3.05;1.60;;;12.90;95.30;;;;;;4988211;28;20087;-68
2022/09/11 01:29:39;;;;;;;7.45;2.00;;;12.80;95.50;;;;;;5003530;28;20148;-67
2022/09/11 01:32:10;;;;;;;6.28;2.25;;;12.70;95.00;;;;;;5022192;28;20433;-68
2022/09/11 01:34:43;;;;;;;8.18;2.25;;;12.70;94.50;;;;;;4997194;28;20030;-67
2022/09/11 01:37:17;;;;;;;8.05;2.10;;;12.60;93.60;;;;;;5005757;28;20021;-68
2022/09/11 01:39:49;;;;;;;7.32;2.10;;;12.70;94.40;;;;;;5014475;28;20018;-68
2022/09/11 01:42:21;;;;;;;4.82;2.00;;;12.70;93.80;;;;;;5007266;28;20053;-67
2022/09/11 01:44:53;;;;;;;5.50;1.90;;;12.70;94.50;;;;;;5003869;28;20059;-68
2022/09/11 01:47:21;;;;;;;7.43;2.30;;;12.70;94.80;;;;;;5021326;28;20497;-68
2022/09/11 01:50:03;;;;;;;5.90;2.20;;;12.80;94.80;;;;;;5003018;28;20038;-68
2022/09/11 01:52:34;;;;;;;5.15;2.00;;;12.80;95.10;;;;;;5007404;28;20355;-68
2022/09/11 01:55:16;;;;;;;5.25;1.83;;;12.80;95.00;;;;;;5003295;28;20112;-67
2022/09/11 01:57:54;;;;;;;5.75;2.40;;;12.80;94.70;;;;;;4997718;28;20544;-68
2022/09/11 02:00:21;;;;;;;8.43;3.40;;;12.80;94.50;;;;;;4996804;28;20030;-68
2022/09/11 02:03:02;;;;;;;6.43;3.17;;;12.80;95.40;;;;;;5012731;28;20029;-67
2022/09/11 02:05:37;;;;;;;7.25;3.45;;;12.90;95.50;;;;;;5018172;28;20101;-68
2022/09/11 02:08:20;;;;;;;10.38;3.25;;;12.90;95.60;;;;;;5002636;28;20030;-68
2022/09/11 02:10:52;;;;;;;7.90;3.25;;;12.90;96.30;;;;;;5000267;28;20453;-67
2022/09/11 02:13:33;;;;;;;5.85;2.90;;;12.90;95.90;;;;;;5001211;28;20133;-68
2022/09/11 02:16:06;;;;;;;9.32;3.63;;;12.90;95.90;;;;;;5004889;28;20031;-68
2022/09/11 02:18:44;;;;;;;6.57;2.83;;;12.90;95.90;;;;;;5008537;28;20329;-68
2022/09/11 02:21:10;;;;;;;11.02;3.47;;;12.90;95.40;;;;;;5013708;28;20372;-68
2022/09/11 02:23:35;;;;;;;7.40;3.05;;;12.90;96.00;;;;;;5006419;28;20117;-68
2022/09/11 02:26:04;;;;;;;6.55;2.85;;;13.00;96.00;;;;;;5003142;28;20046;-68
2022/09/11 02:28:33;;;;;;;8.27;3.10;;;13.00;97.00;;;;;;5005932;28;20030;-68
2022/09/11 02:30:59;;;;;;;7.32;2.85;;;13.00;96.20;;;;;;5003925;28;20038;-67
2022/09/11 02:33:31;;;;;;;8.98;3.03;;;13.00;96.10;;;;;;5021957;28;20315;-68
2022/09/11 02:36:09;;;;;;;6.60;2.42;;;13.00;96.40;;;;;;5002638;28;20032;-68
2022/09/11 02:39:02;;;;;;;5.97;2.40;;;13.00;96.70;;;;;;5005911;28;20030;-68
2022/09/11 02:41:45;;;;;;;6.75;2.58;;;13.00;96.40;;;;;;5004939;28;20614;-68
2022/09/11 02:44:36;;;;;;;8.13;2.95;;;13.00;96.40;;;;;;5000654;28;20040;-67
2022/09/11 02:47:05;;;;;;;5.13;2.17;;;13.10;96.30;;;;;;4997095;28;20053;-67
2022/09/11 02:50:17;;;;;;;7.85;2.35;;;13.10;96.40;;;;;;5022306;28;20100;-67
2022/09/11 02:53:03;;;;;;;6.50;2.45;;;13.00;96.10;;;;;;5003462;28;20102;-67
2022/09/11 02:55:55;;;;;;;6.57;2.13;;;13.10;96.80;;;;;;5007799;28;20021;-68
2022/09/11 02:58:26;;;;;;;6.22;2.30;;;13.10;96.60;;;;;;5007270;28;20439;-67
2022/09/11 03:00:55;;;;;;;4.60;1.90;;;13.10;96.70;;;;;;5019463;28;20073;-69
2022/09/11 03:03:21;;;;;;;7.35;2.30;;;13.10;96.40;;;;;;5009175;28;20123;-68
2022/09/11 03:05:46;;;;;;;5.05;1.90;;;13.20;97.00;;;;;;4996787;28;20034;-68
2022/09/11 03:08:16;;;;;;;8.35;2.20;;;13.10;97.00;;;;;;5006766;28;20038;-68
2022/09/11 03:10:45;;;;;;;6.22;1.98;;;13.10;97.20;;;;;;5001920;28;20076;-68
2022/09/11 03:13:14;;;;;;;6.68;2.40;;;13.10;96.60;;;;;;5010956;28;20087;-68
2022/09/11 03:15:42;;;;;;;8.93;2.90;;;13.10;96.20;;;;;;5003248;28;20101;-68
2022/09/11 03:18:09;;;;;;;6.63;2.60;;;13.00;95.20;;;;;;5001190;28;20438;-68
2022/09/11 03:20:38;;;;;;;6.25;2.70;;;12.90;94.80;;;;;;5003973;28;20160;-68
2022/09/11 03:23:09;;;;;;;7.85;2.75;;;12.80;94.10;;;;;;5020370;28;20030;-69
2022/09/11 03:25:35;;;;;;;8.35;2.63;;;12.70;93.90;;;;;;4999951;28;20034;-69
2022/09/11 03:28:03;;;;;;;8.93;2.70;;;12.70;92.60;;;;;;5021116;28;20060;-69
2022/09/11 03:30:29;;;;;;;8.68;2.95;;;12.60;92.70;;;;;;5010704;28;20083;-69
2022/09/11 03:32:54;;;;;;;8.48;2.63;;;12.60;91.80;;;;;;4989242;28;20034;-69
2022/09/11 03:35:20;;;;;;;6.63;3.20;;;12.50;91.10;;;;;;5003200;28;20025;-70
2022/09/11 03:37:46;;;;;;;6.70;2.60;;;12.50;90.80;;;;;;5011558;28;20513;-69
2022/09/11 03:40:12;;;;;;;5.57;2.30;;;12.50;90.50;;;;;;4987064;28;20422;-69
2022/09/11 03:42:37;;;;;;;6.22;2.97;;;12.40;89.80;;;;;;5008236;28;20029;-69
2022/09/11 03:45:03;;;;;;;5.43;2.88;;;12.40;90.10;;;;;;5000579;28;20327;-70
2022/09/11 03:47:29;;;;;;;12.20;3.15;;;12.40;89.10;;;;;;5011223;28;20081;-69
2022/09/11 03:49:54;;;;;;;6.85;2.88;;;12.40;88.10;;;;;;5010715;28;20029;-69
2022/09/11 03:52:21;;;;;;;7.50;2.90;;;12.40;87.80;;;;;;5002061;28;20049;-69
2022/09/11 03:54:48;;;;;;;7.13;3.08;;;12.30;87.30;;;;;;5004667;28;20105;-69
2022/09/11 03:57:14;;;;;;;6.13;2.97;;;12.40;87.20;;;;;;5001904;28;20109;-69
2022/09/11 03:59:39;;;;;;;6.35;2.75;;;12.30;87.90;;;;;;5009952;28;20384;-69
2022/09/11 04:02:05;;;;;;;6.28;2.83;;;12.30;87.50;;;;;;5007282;28;20106;-69
2022/09/11 04:04:31;;;;;;;7.18;2.95;;;12.30;86.90;;;;;;5003735;28;20117;-69
2022/09/11 04:06:57;;;;;;;9.75;3.78;;;12.30;87.10;;;;;;5010113;28;20022;-69
2022/09/11 04:09:23;;;;;;;4.88;2.80;;;12.30;86.80;;;;;;5008655;28;20324;-69
2022/09/11 04:11:48;;;;;;;5.38;2.65;;;12.30;86.50;;;;;;4995614;28;20359;-68
2022/09/11 04:14:14;;;;;;;6.85;2.80;;;12.30;85.60;;;;;;5005490;28;20121;-69
2022/09/11 04:16:40;;;;;;;8.98;2.97;;;12.30;85.70;;;;;;5003684;28;20026;-69
2022/09/11 04:19:06;;;;;;;6.95;3.10;;;12.30;85.60;;;;;;5001945;28;20038;-69
2022/09/11 04:21:33;;;;;;;5.43;2.80;;;12.30;85.30;;;;;;5006984;28;20030;-69
2022/09/11 04:23:59;;;;;;;8.70;3.40;;;12.30;85.20;;;;;;4994538;28;20147;-69
2022/09/11 04:26:29;;;;;;;6.50;3.22;;;12.30;84.60;;;;;;5007763;28;21279;-68
2022/09/11 04:28:56;;;;;;;6.30;3.20;;;12.30;84.90;;;;;;5005145;28;21846;-69
2022/09/11 04:31:22;;;;;;;5.00;3.35;;;12.30;84.90;;;;;;5013655;28;20088;-68
2022/09/11 04:33:48;;;;;;;10.90;3.80;;;12.30;84.80;;;;;;5008869;28;20426;-68
2022/09/11 04:36:16;;;;;;;7.30;3.15;;;12.30;84.40;;;;;;5012092;28;20026;-69
2022/09/11 04:38:43;;;;;;;5.88;3.40;;;12.30;83.60;;;;;;5007800;28;20030;-69
2022/09/11 04:41:09;;;;;;;9.05;3.40;;;12.30;83.70;;;;;;5007027;28;20095;-69
2022/09/11 04:43:37;;;;;;;6.32;3.67;;;12.30;83.50;;;;;;5004445;28;20029;-69
2022/09/11 04:46:05;;;;;;;7.25;3.38;;;12.30;83.70;;;;;;5008634;28;20086;-69
2022/09/11 04:48:32;;;;;;;19.65;14.70;;;12.30;83.20;;;;;;4992980;28;20426;-69
2022/09/11 04:51:06;;;;;;;11.02;7.63;;;12.30;82.80;;;;;;5009115;28;20080;-69
2022/09/11 04:53:33;;;;;;;6.60;3.85;;;12.30;83.20;;;;;;5004749;28;20018;-69
2022/09/11 04:56:07;;;;;;;6.93;3.60;;;12.30;83.30;;;;;;5003064;28;20018;-69
2022/09/11 04:58:34;;;;;;;7.32;3.60;;;12.30;83.10;;;;;;5013965;28;20095;-69
2022/09/11 05:01:00;;;;;;;7.55;3.60;;;12.30;83.00;;;;;;5014307;28;20030;-69
2022/09/11 05:03:26;;;;;;;7.10;3.67;;;12.30;83.30;;;;;;5016926;28;20029;-69
2022/09/11 05:05:52;;;;;;;6.22;3.88;;;12.30;83.20;;;;;;5016175;28;20116;-69
2022/09/11 05:08:17;;;;;;;10.82;3.47;;;12.30;82.70;;;;;;4990201;28;20025;-69
2022/09/11 05:10:45;;;;;;;7.28;3.80;;;12.30;82.80;;;;;;5008082;28;20321;-69
2022/09/11 05:13:13;;;;;;;9.18;4.10;;;12.30;83.00;;;;;;5006193;28;20025;-69
2022/09/11 05:15:39;;;;;;;10.32;3.85;;;12.30;82.20;;;;;;5006374;28;20143;-69
2022/09/11 05:18:05;;;;;;;6.18;3.70;;;12.30;81.90;;;;;;5005316;28;20342;-69
2022/09/11 05:20:31;;;;;;;11.50;4.22;;;12.40;81.70;;;;;;5009062;28;20042;-69
2022/09/11 05:22:59;;;;;;;7.38;3.83;;;12.40;81.70;;;;;;5011686;28;20026;-69
2022/09/11 05:25:30;;;;;;;9.07;4.80;;;12.40;82.30;;;;;;5004261;28;20049;-69
2022/09/11 05:27:56;;;;;;;9.10;4.13;;;12.40;81.80;;;;;;5010340;28;20022;-69
2022/09/11 05:30:22;;;;;;;6.85;4.30;;;12.40;81.60;;;;;;5007585;28;20151;-69
2022/09/11 05:32:53;;;;;;;7.78;4.22;;;12.40;81.20;;;;;;4990942;28;20061;-69
2022/09/11 05:35:19;;;;;;;8.38;4.53;;;12.40;81.40;;;;;;5011768;28;20049;-69
2022/09/11 05:37:45;;;;;;;7.40;4.45;;;12.40;82.30;;;;;;5010296;28;20028;-69
2022/09/11 05:40:11;;;;;;;11.18;4.53;;;12.40;82.20;;;;;;5005093;28;20033;-69
2022/09/11 05:42:37;;;;;;;9.95;4.10;;;12.40;82.40;;;;;;5002833;28;21574;-69
2022/09/11 05:45:04;;;;;;;11.95;4.00;;;12.40;82.10;;;;;;4998997;28;20119;-69
2022/09/11 05:47:29;;;;;;;7.75;3.90;;;12.50;82.00;;;;;;4993353;28;20045;-68
2022/09/11 05:49:55;;;;;;;6.70;3.83;;;12.50;82.00;;;;;;5009500;28;20284;-71
2022/09/11 05:52:21;;;;;;;10.30;4.00;;;12.50;82.00;;;;;;4997881;28;20023;-70
2022/09/11 05:54:46;;;;;;;11.48;5.20;;;12.50;82.00;;;;;;5005060;28;20099;-70
2022/09/11 05:57:15;;;;;;;10.93;4.28;;;12.50;82.00;;;;;;5001090;28;20045;-69
2022/09/11 05:59:41;;;;;;;8.13;5.00;;;12.50;82.00;;;;;;5002756;28;20111;-69
2022/09/11 06:02:09;;;;;;;7.25;4.43;;;12.60;81.90;;;;;;5002899;28;20108;-69
2022/09/11 06:04:35;;;;;;;8.45;5.38;;;12.60;82.00;;;;;;5002079;28;20030;-69
2022/09/11 06:07:00;;;;;;;10.18;5.35;;;12.60;81.80;;;;;;5004970;28;20033;-69
2022/09/11 06:09:26;;;;;;;8.88;5.28;;;12.60;81.70;;;;;;5007542;28;20025;-69
2022/09/11 06:11:52;;;;;;;8.93;4.97;;;12.70;82.40;;;;;;5005849;28;20026;-69
2022/09/11 06:14:17;;;;;;;8.07;4.93;;;12.60;82.60;;;;;;5004495;28;20072;-70
2022/09/11 06:16:43;;;;;;;8.85;5.00;;;12.60;82.40;;;;;;5000021;28;20779;-69
2022/09/11 06:19:09;;;;;;;9.60;4.78;;;12.60;81.70;;;;;;5004998;28;20037;-70
2022/09/11 06:21:34;;;;;;;7.07;4.70;;;12.70;82.00;;;;;;5007703;28;20908;-69
2022/09/11 06:24:00;;;;;;;8.73;5.22;;;12.70;82.20;;;;;;5012943;28;20026;-69
2022/09/11 06:26:29;;;;;;;8.20;5.30;;;12.70;82.40;;;;;;5004387;28;20328;-70
2022/09/11 06:28:55;;;;;;;9.65;4.60;;;12.80;82.60;;;;;;5006052;28;20032;-69
2022/09/11 06:31:23;;;;;;;9.05;4.65;;;12.80;81.80;;;;;;5006319;28;20022;-69
2022/09/11 06:33:50;;;;;;;8.07;4.00;;;12.80;82.60;;;;;;5002156;28;20018;-69
2022/09/11 06:36:28;;;;;;;11.38;5.13;;;12.80;83.40;;;;;;5000679;28;20026;-69
2022/09/11 06:38:57;;;;;;;6.70;4.40;;;12.80;84.60;;;;;;5004105;28;20068;-69
2022/09/11 06:41:26;;;;;;;6.78;3.95;;;12.80;84.20;;;;;;5003748;28;20041;-68
2022/09/11 06:43:54;;;;;;;10.85;4.53;;;12.80;84.30;;;;;;5007362;28;20115;-68
2022/09/11 06:46:25;;;;;;;9.05;4.40;;;12.70;84.60;;;;;;5002674;28;20042;-69
2022/09/11 06:48:52;;;;;;;9.65;4.30;;;12.70;84.60;;;;;;4997765;28;20033;-69
2022/09/11 06:51:20;;;;;;;7.18;4.20;;;12.70;84.30;;;;;;5004859;28;20017;-68
2022/09/11 06:53:47;;;;;;;7.82;4.32;;;12.80;83.80;;;;;;5013455;28;20022;-67
2022/09/11 06:56:16;;;;;;;8.55;4.10;;;12.80;84.20;;;;;;5012198;28;20029;-67
2022/09/11 06:58:44;;;;;;;9.02;3.90;;;12.90;84.00;;;;;;5007431;28;20113;-69
2022/09/11 07:01:13;;;;;;;9.75;4.38;;;12.90;84.60;;;;;;5009705;28;20083;-67
2022/09/11 07:03:44;;;;;;;6.55;4.00;;;13.00;84.00;;;;;;4991295;28;20104;-68
2022/09/11 07:06:10;;;;;;;7.05;4.28;;;13.00;85.40;;;;;;5006821;28;20030;-69
2022/09/11 07:08:35;;;;;;;6.47;3.90;;;13.00;85.40;;;;;;5007263;28;20053;-69
2022/09/11 07:11:03;;;;;;;7.78;4.55;;;13.00;86.40;;;;;;5001374;28;20066;-68
2022/09/11 07:13:31;;;;;;;7.45;3.97;;;13.00;85.60;;;;;;5004997;28;20033;-68
2022/09/11 07:16:01;;;;;;;6.43;3.90;;;13.10;85.20;;;;;;5006073;28;20030;-68
2022/09/11 07:18:35;;;;;;;7.38;3.72;;;13.10;85.20;;;;;;5006823;28;20029;-68
2022/09/11 07:21:05;;;;;;;;;;;13.20;85.30;;;;;;5012157;28;20089;-69
2022/09/11 07:23:33;;;;;;;8.20;4.25;;;13.20;85.70;;;;;;5005608;28;19913;-68
2022/09/11 07:26:05;;;;;;;8.13;3.88;;;13.20;86.10;;;;;;5011253;28;20037;-69
2022/09/11 07:28:31;;;;;;;8.80;3.80;;;13.30;86.10;;;;;;5004819;28;20430;-68
2022/09/11 07:31:04;;;;;;;5.63;3.38;;;13.20;86.40;;;;;;5013014;28;20299;-69
2022/09/11 07:33:33;;;;;;;7.78;3.45;;;13.30;85.30;;;;;;4995710;28;20022;-68
2022/09/11 07:35:58;;;;;;;6.72;3.45;;;13.30;86.80;;;;;;5015425;28;20034;-68
2022/09/11 07:38:24;;;;;;;8.05;3.38;;;13.30;87.70;;;;;;5015534;28;20081;-67
2022/09/11 07:40:53;;;;;;;5.95;2.67;;;13.30;87.50;;;;;;5015265;28;20108;-68
2022/09/11 07:43:19;;;;;;;6.40;2.70;;;13.30;87.50;;;;;;4998900;28;20038;-68
2022/09/11 07:45:45;;;;;;;5.97;2.90;;;13.40;88.00;;;;;;5008263;28;20108;-68
2022/09/11 07:48:11;;;;;;;4.57;2.35;;;13.40;89.40;;;;;;5015286;28;20108;-68
2022/09/11 07:50:37;;;;;;;4.45;2.38;;;13.50;89.10;;;;;;5015220;28;20079;-66
2022/09/11 07:53:03;;;;;;;6.65;2.50;;;13.60;88.60;;;;;;5016236;28;20029;-68
2022/09/11 07:55:28;;;;;;;7.57;3.53;;;13.80;90.20;;;;;;5018940;28;20065;-68
2022/09/11 07:57:54;;;;;;;3.22;2.00;;;13.90;91.50;;;;;;5010593;28;20484;-68
2022/09/11 08:00:22;;;;;;;6.80;2.40;;;14.00;91.50;;;;;;5005764;28;20067;-68
2022/09/11 08:02:48;;;;;;;4.72;1.88;;;14.20;92.30;;;;;;5010312;28;20025;-68
2022/09/11 08:05:17;;;;;;;3.78;1.80;;;14.30;94.70;;;;;;5010099;28;20088;-68
2022/09/11 08:07:52;;;;;;;4.75;2.10;;;14.40;94.70;;;;;;5007421;28;20022;-68
2022/09/11 08:10:21;;;;;;;6.30;2.00;;;14.30;95.20;;;;;;5014078;28;20167;-68
2022/09/11 08:12:46;;;;;;;4.18;1.95;;;14.30;94.20;;;;;;5012354;28;20089;-68
2022/09/11 08:15:12;;;;;;;3.20;1.80;;;14.40;94.90;;;;;;5012282;28;20037;-68
2022/09/11 08:17:38;;;;;;;4.35;1.80;;;14.50;96.00;;;;;;5008624;28;20049;-68
2022/09/11 08:20:04;;;;;;;5.75;2.15;;;14.50;95.30;;;;;;5014346;28;20030;-68
2022/09/11 08:22:30;;;;;;;4.15;1.77;;;14.60;96.00;;;;;;5014674;28;20026;-68
2022/09/11 08:24:55;;;;;;;5.13;2.20;;;14.60;95.60;;;;;;5012723;28;20313;-68
2022/09/11 08:27:21;;;;;;;5.25;1.55;;;14.70;95.90;;;;;;5007122;28;20045;-68
2022/09/11 08:29:46;;;;;;;4.03;1.77;;;15.00;96.60;;;;;;5033624;28;20029;-68
2022/09/11 08:32:12;;;;;;;2.70;1.60;;;15.30;98.00;;;;;;5010489;28;20066;-68
2022/09/11 08:34:38;;;;;;;5.05;1.63;;;15.30;98.00;;;;;;5011073;28;20060;-68
2022/09/11 08:37:06;;;;;;;3.38;1.65;;;15.50;98.00;;;;;;5010194;28;20033;-67
2022/09/11 08:39:35;;;;;;;5.00;1.80;;;15.50;98.00;;;;;;5013120;28;20117;-66
2022/09/11 08:42:10;;;;;;;3.30;1.50;;;15.50;98.00;;;;;;5014558;28;20037;-67
2022/09/11 08:44:57;;;;;;;4.38;2.00;;;15.40;98.00;;;;;;4990993;28;20113;-70
2022/09/11 08:47:35;;;;;;;4.90;1.80;;;15.50;98.00;;;;;;5008755;28;20053;-67
2022/09/11 08:50:22;;;;;;;3.42;1.90;;;15.40;98.00;;;;;;5013908;28;20037;-68
2022/09/11 08:52:48;;;;;;;4.25;1.75;;;15.40;98.00;;;;;;5012746;28;20113;-68
2022/09/11 08:55:35;;;;;;;4.20;2.17;;;15.40;98.00;;;;;;5008691;28;20029;-68
2022/09/11 08:58:22;;;;;;;5.32;2.28;;;15.40;98.00;;;;;;5015188;28;20072;-68
2022/09/11 09:00:57;;;;;;;6.13;2.50;;;15.50;98.00;;;;;;5014074;28;20037;-68
2022/09/11 09:03:38;;;;;;;5.28;2.30;;;15.50;98.00;;;;;;5010007;28;20038;-68
2022/09/11 09:06:30;;;;;;;5.22;2.40;;;15.60;98.00;;;;;;5020345;28;20029;-67
2022/09/11 09:09:07;;;;;;;5.50;2.70;;;15.80;98.00;;;;;;5016097;28;20366;-67
2022/09/11 09:11:37;;;;;;;7.47;2.97;;;15.90;98.00;;;;;;5015462;28;20026;-68
2022/09/11 09:14:30;;;;;;;5.50;3.30;;;15.90;98.00;;;;;;5011815;28;20022;-67
2022/09/11 09:17:25;;;;;;;7.75;4.00;;;15.90;98.00;;;;;;5009910;28;20022;-67
2022/09/11 09:20:15;;;;;;;5.78;3.33;;;15.90;98.00;;;;;;5006113;28;20494;-68
2022/09/11 09:22:53;;;;;;;6.72;3.88;;;15.90;98.00;;;;;;5003621;28;20038;-68
2022/09/11 09:25:24;;;;;;;7.32;4.28;;;15.80;98.00;;;;;;5009750;28;20068;-67
2022/09/11 09:28:10;;;;;;;6.43;3.80;;;15.70;98.00;;;;;;5014514;28;20022;-68
2022/09/11 09:30:53;;;;;;;17.15;10.45;;;15.70;98.00;;;;;;5016900;28;20028;-67
2022/09/11 09:33:42;;;;;;;14.20;8.00;;;15.70;98.00;;;;;;5015651;28;20033;-67
2022/09/11 09:36:19;;;;;;;8.70;5.32;;;15.50;98.00;;;;;;5016545;28;20037;-68
2022/09/11 09:38:45;;;;;;;6.57;4.30;;;15.30;98.00;;;;;;5016481;28;20029;-69
2022/09/11 09:41:49;;;;;;;8.50;4.97;;;15.10;97.80;;;;;;5017988;28;20017;-69
2022/09/11 09:44:51;;;;;;;6.20;4.22;;;15.00;96.70;;;;;;5004528;28;20083;-69
2022/09/11 09:47:17;;;;;;;7.10;4.60;;;14.90;95.80;;;;;;5008325;28;20485;-69
2022/09/11 09:49:45;;;;;;;8.77;5.55;;;14.80;95.90;;;;;;5007293;28;20100;-69
2022/09/11 09:52:25;;;;;;;9.23;5.45;;;14.80;94.70;;;;;;5013789;28;20367;-69
2022/09/11 09:55:11;;;;;;;7.80;5.93;;;14.70;94.10;;;;;;5018609;28;20034;-69
2022/09/11 09:57:40;;;;;;;9.15;6.57;;;14.60;93.90;;;;;;5019510;28;20053;-71
2022/09/11 10:00:16;;;;;;;8.05;6.45;;;14.70;92.20;;;;;;5013753;28;20030;-70
2022/09/11 10:02:48;;;;;;;8.63;6.43;;;14.80;90.70;;;;;;5006988;28;20430;-69
2022/09/11 10:05:53;;;;;;;9.55;5.63;;;14.90;92.40;;;;;;5011460;28;20338;-68
2022/09/11 10:08:36;;;;;;;9.48;5.85;;;15.20;93.10;;;;;;5012968;28;20080;-68
2022/09/11 10:11:04;;;;;;;8.82;5.70;;;15.40;95.00;;;;;;4998410;28;20022;-71
2022/09/11 10:13:37;;;;;;;8.13;5.82;;;15.70;94.30;;;;;;5011181;28;21471;-69
2022/09/11 10:16:24;;;;;;;7.47;5.60;;;15.80;95.50;;;;;;5010297;28;20136;-69
2022/09/11 10:18:55;;;;;;;6.63;4.95;;;16.20;96.10;;;;;;5006893;28;20021;-70
2022/09/11 10:21:32;;;;;;;5.63;3.90;;;16.80;98.00;;;;;;5008357;28;20121;-69
2022/09/11 10:27:21;;;;;;;7.35;5.47;;;18.10;98.00;;;;;;5011011;28;20036;-68
2022/09/11 10:29:50;;;;;;;5.50;4.00;;;18.10;98.00;;;;;;5013305;28;20062;-68
2022/09/11 10:32:17;;;;;;;5.85;3.97;;;18.20;96.70;;;;;;5022915;28;20037;-69
2022/09/11 10:34:44;;;;;;;8.30;4.70;;;18.40;96.20;;;;;;4995620;28;20022;-67
2022/09/11 10:37:22;;;;;;;6.75;3.85;;;18.40;95.90;;;;;;4984281;28;20152;-68
2022/09/11 10:40:01;;;;;;;6.05;3.60;;;18.70;96.90;;;;;;5019464;28;20026;-67
2022/09/11 10:42:33;;;;;;;6.82;3.00;;;19.10;94.80;;;;;;5002254;28;20116;-68
2022/09/11 10:45:16;;;;;;;6.18;3.35;;;19.60;93.30;;;;;;5014057;28;20026;-67
2022/09/11 10:47:47;;;;;;;6.32;3.63;;;20.00;92.40;;;;;;5013979;28;20053;-68
2022/09/11 10:50:16;;;;;;;5.55;3.75;;;20.00;91.70;;;;;;5010252;28;20369;-67
2022/09/11 10:53:20;;;;;;;4.95;2.90;;;20.10;91.50;;;;;;5009173;28;20492;-67
2022/09/11 10:55:59;;;;;;;5.60;3.05;;;20.30;91.40;;;;;;5005195;28;20101;-67
2022/09/11 10:58:35;;;;;;;5.57;2.80;;;20.40;90.30;;;;;;5012381;28;20022;-69
2022/09/11 11:01:01;;;;;;;4.88;2.70;;;20.30;89.10;;;;;;5015949;28;20044;-68
2022/09/11 11:03:28;;;;;;;5.38;2.78;;;20.70;88.60;;;;;;5006142;28;20342;-67
2022/09/11 11:06:14;;;;;;;4.80;3.40;;;20.90;88.80;;;;;;5012450;28;20414;-67
2022/09/11 11:09:26;;;;;;;6.45;2.30;;;20.90;89.10;;;;;;5013418;28;20037;-67
2022/09/11 11:11:58;;;;;;;5.43;3.05;;;20.90;88.30;;;;;;5009485;28;20026;-68
2022/09/11 11:14:46;;;;;;;4.85;3.08;;;20.60;90.30;;;;;;5011640;28;20080;-68
2022/09/11 11:17:48;;;;;;;5.95;3.10;;;19.90;89.40;;;;;;5019047;28;20034;-68
2022/09/11 11:20:43;;;;;;;5.65;3.38;;;19.80;90.80;;;;;;4999843;28;20034;-68
2022/09/11 11:23:13;;;;;;;;;;;19.60;90.00;;;;;;5019288;28;20021;-67
2022/09/11 11:25:41;;;;;;;4.93;3.17;;;19.40;91.20;;;;;;4999514;28;20702;-68
2022/09/11 11:28:14;;;;;;;6.50;3.30;;;19.30;90.60;;;;;;5011281;28;20369;-68
2022/09/11 11:31:31;;;;;;;5.57;3.05;;;19.60;89.90;;;;;;5013341;28;20051;-68
2022/09/11 11:34:25;;;;;;;6.05;3.80;;;19.80;91.00;;;;;;4983142;28;20038;-67
2022/09/11 11:37:04;;;;;;;5.53;3.60;;;19.70;90.50;;;;;;5013545;28;20168;-67
2022/09/11 11:39:43;;;;;;;5.65;3.50;;;19.70;88.50;;;;;;5011895;28;20450;-67
2022/09/11 11:42:36;;;;;;;4.40;2.80;;;19.60;90.40;;;;;;5014006;28;20478;-69
2022/09/11 11:45:08;;;;;;;4.30;3.10;;;19.60;87.50;;;;;;5013290;28;20038;-68
2022/09/11 11:47:42;;;;;;;6.07;3.20;;;19.50;88.00;;;;;;5031454;28;20121;-68
2022/09/11 11:50:26;;;;;;;5.55;3.13;;;19.20;90.10;;;;;;5018847;28;20022;-68
2022/09/11 11:53:16;;;;;;;5.10;2.90;;;19.10;92.10;;;;;;5012354;28;20029;-68
2022/09/11 11:55:53;;;;;;;4.80;2.95;;;19.40;90.20;;;;;;5012282;28;20148;-68
2022/09/11 11:58:40;;;;;;;4.85;3.00;;;19.60;89.90;;;;;;5015187;28;20032;-67
2022/09/11 12:01:16;;;;;;;5.78;2.90;;;19.60;89.90;;;;;;5019315;28;20418;-67
2022/09/11 12:03:55;;;;;;;5.40;3.00;;;19.70;89.70;;;;;;5014860;28;20490;-67
2022/09/11 12:06:21;;;;;;;5.80;2.95;;;20.30;90.20;;;;;;5015128;28;20065;-68
2022/09/11 12:08:48;;;;;;;5.60;3.28;;;21.30;86.00;;;;;;5013965;28;20014;-68
2022/09/11 12:11:30;;;;;;;5.35;2.42;;;21.90;81.20;;;;;;5014692;28;20022;-68
2022/09/11 12:13:57;;;;;;;3.88;2.40;;;22.30;80.90;;;;;;5012885;28;20026;-67
2022/09/11 12:16:34;;;;;;;4.28;2.75;;;22.80;81.70;;;;;;5023174;28;20026;-68
2022/09/11 12:19:03;;;;;;;4.63;2.60;;;23.10;79.30;;;;;;5013953;28;20026;-68
2022/09/11 12:21:38;;;;;;;5.20;2.58;;;23.20;80.10;;;;;;5010833;28;20026;-67
2022/09/11 12:24:04;;;;;;;4.93;2.63;;;22.90;77.70;;;;;;5012758;28;20068;-68
2022/09/11 12:26:30;;;;;;;5.25;2.92;;;22.80;78.30;;;;;;5013073;28;20053;-67
2022/09/11 12:29:28;;;;;;;4.97;2.90;;;22.80;76.80;;;;;;5012584;28;20037;-68
2022/09/11 12:32:02;;;;;;;5.47;2.40;;;23.30;78.20;;;;;;4971867;28;20967;-67
2022/09/11 12:34:46;;;;;;;5.32;2.88;;;23.10;77.50;;;;;;5012424;28;20309;-68
2022/09/11 12:37:31;;;;;;;4.40;2.63;;;22.30;77.20;;;;;;5014167;28;20096;-68
2022/09/11 12:40:23;;;;;;;6.13;3.00;;;21.80;78.90;;;;;;5012696;28;20042;-68
2022/09/11 12:43:19;;;;;;;5.47;3.20;;;21.50;81.30;;;;;;5012362;28;20030;-67
2022/09/11 12:45:48;;;;;;;4.88;3.10;;;21.20;82.50;;;;;;5024166;28;20026;-67
2022/09/11 12:48:19;;;;;;;3.80;2.55;;;21.10;82.80;;;;;;5014712;28;20085;-67
2022/09/11 12:50:51;;;;;;;5.97;2.97;;;21.10;81.80;;;;;;4996708;28;20391;-68
2022/09/11 12:53:28;;;;;;;5.28;3.10;;;21.80;82.90;;;;;;5012535;28;20441;-68
2022/09/11 12:56:07;;;;;;;4.60;2.70;;;22.60;79.50;;;;;;5014158;28;20034;-68
2022/09/11 12:58:37;;;;;;;4.60;2.85;;;23.10;79.70;;;;;;5022949;28;20034;-68
2022/09/11 13:01:09;;;;;;;4.20;2.50;;;23.30;77.20;;;;;;5018213;28;20034;-68
2022/09/11 13:03:47;;;;;;;3.95;2.65;;;23.60;77.30;;;;;;5017147;28;20034;-68
2022/09/11 13:06:15;;;;;;;4.60;2.55;;;23.20;75.90;;;;;;5018653;28;20033;-68
2022/09/11 13:09:00;;;;;;;4.05;2.60;;;23.20;80.20;;;;;;5018263;28;20650;-68
2022/09/11 13:11:38;;;;;;;5.18;2.40;;;23.40;75.30;;;;;;5017270;28;20418;-69
2022/09/11 13:14:25;;;;;;;4.45;2.65;;;23.30;76.60;;;;;;5017431;28;20034;-68
2022/09/11 13:16:51;;;;;;;5.93;3.05;;;23.70;75.30;;;;;;5018211;28;20030;-68